sensor_id;sensor_type;location;lat;lon;timestamp;P1;durP1;ratioP1;P2;durP2;ratioP2
36405;SDS011;22438;42.670;23.288;2023-02-11T00:01:27;25.27;;;11.40;;
36405;SDS011;22438;42.670;23.288;2023-02-11T00:04:48;27.73;;;10.77;;
36405;SDS011;22438;42.670;23.288;2023-02-11T00:08:09;24.98;;;10.20;;
36405;SDS011;22438;42.670;23.288;2023-02-11T00:11:36;29.02;;;12.00;;
36405;SDS011;22438;42.670;23.288;2023-02-11T00:14:56;27.98;;;11.73;;
36405;SDS011;22438;42.670;23.288;2023-02-11T00:18:17;30.27;;;12.80;;
36405;SDS011;22438;42.670;23.288;2023-02-11T00:21:38;29.13;;;12.02;;
36405;SDS011;22438;42.670;23.288;2023-02-11T00:24:59;25.98;;;10.77;;
36405;SDS011;22438;42.670;23.288;2023-02-11T00:28:20;27.30;;;11.30;;
36405;SDS011;22438;42.670;23.288;2023-02-11T00:31:41;24.20;;;11.35;;
36405;SDS011;22438;42.670;23.288;2023-02-11T00:35:01;23.77;;;10.90;;
36405;SDS011;22438;42.670;23.288;2023-02-11T00:38:22;22.30;;;10.27;;
36405;SDS011;22438;42.670;23.288;2023-02-11T00:41:43;28.33;;;11.35;;
36405;SDS011;22438;42.670;23.288;2023-02-11T00:45:04;21.25;;;10.32;;
36405;SDS011;22438;42.670;23.288;2023-02-11T00:48:25;25.65;;;10.82;;
36405;SDS011;22438;42.670;23.288;2023-02-11T00:51:45;24.73;;;9.80;;
36405;SDS011;22438;42.670;23.288;2023-02-11T00:55:06;24.23;;;10.70;;
36405;SDS011;22438;42.670;23.288;2023-02-11T00:58:27;28.40;;;10.75;;
36405;SDS011;22438;42.670;23.288;2023-02-11T01:01:48;24.10;;;9.50;;
36405;SDS011;22438;42.670;23.288;2023-02-11T01:05:09;26.15;;;10.95;;
36405;SDS011;22438;42.670;23.288;2023-02-11T01:08:29;26.60;;;10.02;;
36405;SDS011;22438;42.670;23.288;2023-02-11T01:11:50;23.38;;;11.38;;
36405;SDS011;22438;42.670;23.288;2023-02-11T01:15:12;25.13;;;10.70;;
36405;SDS011;22438;42.670;23.288;2023-02-11T01:18:34;25.25;;;10.38;;
36405;SDS011;22438;42.670;23.288;2023-02-11T01:21:55;26.38;;;10.10;;
36405;SDS011;22438;42.670;23.288;2023-02-11T01:25:16;29.92;;;11.27;;
36405;SDS011;22438;42.670;23.288;2023-02-11T01:28:36;26.52;;;10.95;;
36405;SDS011;22438;42.670;23.288;2023-02-11T01:31:58;24.75;;;10.90;;
36405;SDS011;22438;42.670;23.288;2023-02-11T01:35:19;24.65;;;10.50;;
36405;SDS011;22438;42.670;23.288;2023-02-11T01:38:40;25.27;;;10.20;;
36405;SDS011;22438;42.670;23.288;2023-02-11T01:42:01;23.27;;;11.07;;
36405;SDS011;22438;42.670;23.288;2023-02-11T01:49:09;24.42;;;10.27;;
36405;SDS011;22438;42.670;23.288;2023-02-11T01:52:33;28.42;;;11.10;;
36405;SDS011;22438;42.670;23.288;2023-02-11T01:55:56;28.98;;;11.48;;
36405;SDS011;22438;42.670;23.288;2023-02-11T01:59:40;24.13;;;10.20;;
36405;SDS011;22438;42.670;23.288;2023-02-11T02:03:24;23.42;;;9.93;;
36405;SDS011;22438;42.670;23.288;2023-02-11T02:06:55;21.77;;;9.85;;
36405;SDS011;22438;42.670;23.288;2023-02-11T02:10:20;27.45;;;11.73;;
36405;SDS011;22438;42.670;23.288;2023-02-11T02:13:42;28.20;;;9.95;;
36405;SDS011;22438;42.670;23.288;2023-02-11T02:17:04;25.80;;;9.98;;
36405;SDS011;22438;42.670;23.288;2023-02-11T02:20:30;22.58;;;11.00;;
36405;SDS011;22438;42.670;23.288;2023-02-11T02:24:09;28.33;;;11.03;;
36405;SDS011;22438;42.670;23.288;2023-02-11T02:42:36;21.77;;;9.20;;
36405;SDS011;22438;42.670;23.288;2023-02-11T02:46:09;28.27;;;12.15;;
36405;SDS011;22438;42.670;23.288;2023-02-11T02:49:34;23.60;;;9.35;;
36405;SDS011;22438;42.670;23.288;2023-02-11T02:52:59;26.48;;;10.02;;
36405;SDS011;22438;42.670;23.288;2023-02-11T02:56:38;24.70;;;9.55;;
36405;SDS011;22438;42.670;23.288;2023-02-11T03:08:23;25.85;;;10.00;;
36405;SDS011;22438;42.670;23.288;2023-02-11T03:11:46;28.80;;;11.07;;
36405;SDS011;22438;42.670;23.288;2023-02-11T03:15:07;26.65;;;11.43;;
36405;SDS011;22438;42.670;23.288;2023-02-11T03:18:28;22.48;;;9.90;;
36405;SDS011;22438;42.670;23.288;2023-02-11T03:21:50;21.23;;;9.13;;
36405;SDS011;22438;42.670;23.288;2023-02-11T03:25:11;20.88;;;10.43;;
36405;SDS011;22438;42.670;23.288;2023-02-11T03:28:38;25.27;;;10.40;;
36405;SDS011;22438;42.670;23.288;2023-02-11T03:35:42;21.67;;;9.38;;
36405;SDS011;22438;42.670;23.288;2023-02-11T03:39:07;29.58;;;10.95;;
36405;SDS011;22438;42.670;23.288;2023-02-11T03:42:32;22.58;;;10.00;;
36405;SDS011;22438;42.670;23.288;2023-02-11T03:45:55;24.42;;;10.82;;
36405;SDS011;22438;42.670;23.288;2023-02-11T03:49:17;23.98;;;10.52;;
36405;SDS011;22438;42.670;23.288;2023-02-11T03:52:39;26.08;;;10.13;;
36405;SDS011;22438;42.670;23.288;2023-02-11T03:56:01;28.65;;;12.20;;
36405;SDS011;22438;42.670;23.288;2023-02-11T03:59:24;27.25;;;11.65;;
36405;SDS011;22438;42.670;23.288;2023-02-11T04:02:45;26.05;;;11.40;;
36405;SDS011;22438;42.670;23.288;2023-02-11T04:06:06;27.23;;;11.70;;
36405;SDS011;22438;42.670;23.288;2023-02-11T04:09:26;25.48;;;11.77;;
36405;SDS011;22438;42.670;23.288;2023-02-11T04:12:47;26.75;;;10.13;;
36405;SDS011;22438;42.670;23.288;2023-02-11T04:16:08;27.63;;;11.35;;
36405;SDS011;22438;42.670;23.288;2023-02-11T04:19:29;25.27;;;10.55;;
36405;SDS011;22438;42.670;23.288;2023-02-11T04:22:49;23.42;;;11.52;;
36405;SDS011;22438;42.670;23.288;2023-02-11T04:26:10;22.02;;;10.93;;
36405;SDS011;22438;42.670;23.288;2023-02-11T04:29:31;30.48;;;12.07;;
36405;SDS011;22438;42.670;23.288;2023-02-11T04:32:51;27.48;;;11.25;;
36405;SDS011;22438;42.670;23.288;2023-02-11T04:36:13;27.30;;;11.60;;
36405;SDS011;22438;42.670;23.288;2023-02-11T04:39:34;25.52;;;10.65;;
36405;SDS011;22438;42.670;23.288;2023-02-11T04:42:55;31.25;;;12.38;;
36405;SDS011;22438;42.670;23.288;2023-02-11T04:46:15;30.45;;;12.68;;
36405;SDS011;22438;42.670;23.288;2023-02-11T04:49:36;31.08;;;12.63;;
36405;SDS011;22438;42.670;23.288;2023-02-11T04:52:57;30.98;;;12.57;;
36405;SDS011;22438;42.670;23.288;2023-02-11T04:56:17;33.20;;;12.45;;
36405;SDS011;22438;42.670;23.288;2023-02-11T04:59:38;26.75;;;12.45;;
36405;SDS011;22438;42.670;23.288;2023-02-11T05:02:59;28.05;;;12.05;;
36405;SDS011;22438;42.670;23.288;2023-02-11T05:06:20;25.40;;;11.25;;
36405;SDS011;22438;42.670;23.288;2023-02-11T05:09:41;32.95;;;13.07;;
36405;SDS011;22438;42.670;23.288;2023-02-11T05:13:02;25.52;;;11.50;;
36405;SDS011;22438;42.670;23.288;2023-02-11T05:16:23;25.15;;;11.90;;
36405;SDS011;22438;42.670;23.288;2023-02-11T05:19:43;31.95;;;13.20;;
36405;SDS011;22438;42.670;23.288;2023-02-11T05:23:04;30.58;;;12.43;;
36405;SDS011;22438;42.670;23.288;2023-02-11T05:26:25;28.20;;;11.75;;
36405;SDS011;22438;42.670;23.288;2023-02-11T05:29:46;29.85;;;13.52;;
36405;SDS011;22438;42.670;23.288;2023-02-11T05:33:06;29.77;;;12.38;;
36405;SDS011;22438;42.670;23.288;2023-02-11T05:36:27;29.35;;;13.95;;
36405;SDS011;22438;42.670;23.288;2023-02-11T05:39:48;29.73;;;12.52;;
36405;SDS011;22438;42.670;23.288;2023-02-11T05:43:09;35.17;;;15.23;;
36405;SDS011;22438;42.670;23.288;2023-02-11T05:46:29;34.38;;;13.00;;
36405;SDS011;22438;42.670;23.288;2023-02-11T05:49:50;31.92;;;14.95;;
36405;SDS011;22438;42.670;23.288;2023-02-11T05:53:12;32.72;;;13.35;;
36405;SDS011;22438;42.670;23.288;2023-02-11T05:56:32;27.63;;;13.27;;
36405;SDS011;22438;42.670;23.288;2023-02-11T05:59:53;33.58;;;14.13;;
36405;SDS011;22438;42.670;23.288;2023-02-11T06:03:14;37.03;;;14.98;;
36405;SDS011;22438;42.670;23.288;2023-02-11T06:06:35;32.67;;;13.70;;
36405;SDS011;22438;42.670;23.288;2023-02-11T06:09:56;32.67;;;13.55;;
36405;SDS011;22438;42.670;23.288;2023-02-11T06:13:16;29.67;;;13.48;;
36405;SDS011;22438;42.670;23.288;2023-02-11T06:16:38;32.03;;;13.70;;
36405;SDS011;22438;42.670;23.288;2023-02-11T06:19:59;40.55;;;14.50;;
36405;SDS011;22438;42.670;23.288;2023-02-11T06:23:22;41.50;;;16.27;;
36405;SDS011;22438;42.670;23.288;2023-02-11T06:26:42;34.72;;;15.20;;
36405;SDS011;22438;42.670;23.288;2023-02-11T06:30:04;37.80;;;17.02;;
36405;SDS011;22438;42.670;23.288;2023-02-11T06:33:25;41.70;;;18.75;;
36405;SDS011;22438;42.670;23.288;2023-02-11T06:36:46;43.85;;;19.73;;
36405;SDS011;22438;42.670;23.288;2023-02-11T06:40:07;42.03;;;17.45;;
36405;SDS011;22438;42.670;23.288;2023-02-11T06:43:28;39.85;;;18.40;;
36405;SDS011;22438;42.670;23.288;2023-02-11T06:46:48;44.63;;;19.25;;
36405;SDS011;22438;42.670;23.288;2023-02-11T06:50:10;53.47;;;22.63;;
36405;SDS011;22438;42.670;23.288;2023-02-11T06:53:36;46.25;;;21.20;;
36405;SDS011;22438;42.670;23.288;2023-02-11T06:56:58;46.85;;;22.08;;
36405;SDS011;22438;42.670;23.288;2023-02-11T07:00:19;53.63;;;23.17;;
36405;SDS011;22438;42.670;23.288;2023-02-11T07:03:41;45.40;;;22.90;;
36405;SDS011;22438;42.670;23.288;2023-02-11T07:07:03;51.90;;;22.73;;
36405;SDS011;22438;42.670;23.288;2023-02-11T07:10:23;48.75;;;21.50;;
36405;SDS011;22438;42.670;23.288;2023-02-11T07:13:45;48.55;;;22.92;;
36405;SDS011;22438;42.670;23.288;2023-02-11T07:17:06;51.88;;;20.85;;
36405;SDS011;22438;42.670;23.288;2023-02-11T07:20:27;43.47;;;19.08;;
36405;SDS011;22438;42.670;23.288;2023-02-11T07:23:47;33.15;;;13.23;;
36405;SDS011;22438;42.670;23.288;2023-02-11T07:27:08;36.60;;;13.75;;
36405;SDS011;22438;42.670;23.288;2023-02-11T07:30:29;34.70;;;14.75;;
36405;SDS011;22438;42.670;23.288;2023-02-11T07:33:50;31.88;;;14.13;;
36405;SDS011;22438;42.670;23.288;2023-02-11T07:37:12;32.08;;;14.63;;
36405;SDS011;22438;42.670;23.288;2023-02-11T07:40:33;30.33;;;13.40;;
36405;SDS011;22438;42.670;23.288;2023-02-11T07:43:53;31.73;;;13.88;;
36405;SDS011;22438;42.670;23.288;2023-02-11T07:47:14;35.55;;;15.52;;
36405;SDS011;22438;42.670;23.288;2023-02-11T07:50:35;30.55;;;12.43;;
36405;SDS011;22438;42.670;23.288;2023-02-11T07:53:56;30.85;;;13.05;;
36405;SDS011;22438;42.670;23.288;2023-02-11T07:57:18;31.05;;;14.30;;
36405;SDS011;22438;42.670;23.288;2023-02-11T08:00:38;29.23;;;13.25;;
36405;SDS011;22438;42.670;23.288;2023-02-11T08:03:59;32.22;;;13.93;;
36405;SDS011;22438;42.670;23.288;2023-02-11T08:07:21;30.65;;;13.30;;
36405;SDS011;22438;42.670;23.288;2023-02-11T08:10:41;30.42;;;13.35;;
36405;SDS011;22438;42.670;23.288;2023-02-11T08:14:02;32.78;;;13.98;;
36405;SDS011;22438;42.670;23.288;2023-02-11T08:17:23;30.52;;;13.90;;
36405;SDS011;22438;42.670;23.288;2023-02-11T08:20:43;31.85;;;13.88;;
36405;SDS011;22438;42.670;23.288;2023-02-11T08:24:04;33.30;;;14.13;;
36405;SDS011;22438;42.670;23.288;2023-02-11T08:27:26;30.33;;;14.20;;
36405;SDS011;22438;42.670;23.288;2023-02-11T08:30:47;32.67;;;14.77;;
36405;SDS011;22438;42.670;23.288;2023-02-11T08:34:07;37.17;;;16.63;;
36405;SDS011;22438;42.670;23.288;2023-02-11T08:37:29;35.78;;;16.05;;
36405;SDS011;22438;42.670;23.288;2023-02-11T08:40:50;31.70;;;14.85;;
36405;SDS011;22438;42.670;23.288;2023-02-11T08:44:11;30.33;;;16.08;;
36405;SDS011;22438;42.670;23.288;2023-02-11T08:47:32;35.47;;;15.60;;
36405;SDS011;22438;42.670;23.288;2023-02-11T08:50:56;33.42;;;15.13;;
36405;SDS011;22438;42.670;23.288;2023-02-11T08:54:17;35.30;;;14.98;;
36405;SDS011;22438;42.670;23.288;2023-02-11T08:57:37;35.08;;;15.68;;
36405;SDS011;22438;42.670;23.288;2023-02-11T09:00:58;34.28;;;16.08;;
36405;SDS011;22438;42.670;23.288;2023-02-11T09:04:19;30.30;;;14.45;;
36405;SDS011;22438;42.670;23.288;2023-02-11T09:07:39;28.83;;;12.45;;
36405;SDS011;22438;42.670;23.288;2023-02-11T09:11:00;29.42;;;14.45;;
36405;SDS011;22438;42.670;23.288;2023-02-11T09:14:22;28.60;;;13.70;;
36405;SDS011;22438;42.670;23.288;2023-02-11T09:17:43;26.83;;;14.07;;
36405;SDS011;22438;42.670;23.288;2023-02-11T14:07:33;21.75;;;9.85;;
36405;SDS011;22438;42.670;23.288;2023-02-11T14:18:35;18.25;;;8.82;;
36405;SDS011;22438;42.670;23.288;2023-02-11T14:22:00;25.98;;;14.25;;
36405;SDS011;22438;42.670;23.288;2023-02-11T14:25:23;24.33;;;13.73;;
36405;SDS011;22438;42.670;23.288;2023-02-11T14:39:31;22.73;;;11.40;;
36405;SDS011;22438;42.670;23.288;2023-02-11T14:43:12;20.40;;;9.70;;
36405;SDS011;22438;42.670;23.288;2023-02-11T14:46:37;21.80;;;10.18;;
36405;SDS011;22438;42.670;23.288;2023-02-11T14:49:58;21.90;;;9.55;;
36405;SDS011;22438;42.670;23.288;2023-02-11T14:53:20;19.73;;;8.60;;
36405;SDS011;22438;42.670;23.288;2023-02-11T14:56:42;20.20;;;9.90;;
36405;SDS011;22438;42.670;23.288;2023-02-11T15:00:05;18.52;;;9.43;;
36405;SDS011;22438;42.670;23.288;2023-02-11T15:03:36;27.60;;;13.57;;
36405;SDS011;22438;42.670;23.288;2023-02-11T15:07:02;36.92;;;15.70;;
36405;SDS011;22438;42.670;23.288;2023-02-11T15:10:29;37.63;;;16.70;;
36405;SDS011;22438;42.670;23.288;2023-02-11T15:13:52;29.77;;;13.85;;
36405;SDS011;22438;42.670;23.288;2023-02-11T15:17:15;26.13;;;13.35;;
36405;SDS011;22438;42.670;23.288;2023-02-11T15:20:40;25.55;;;11.63;;
36405;SDS011;22438;42.670;23.288;2023-02-11T15:24:02;23.60;;;10.48;;
36405;SDS011;22438;42.670;23.288;2023-02-11T15:27:25;27.80;;;10.88;;
36405;SDS011;22438;42.670;23.288;2023-02-11T15:30:46;21.15;;;10.02;;
36405;SDS011;22438;42.670;23.288;2023-02-11T15:34:16;27.20;;;11.18;;
36405;SDS011;22438;42.670;23.288;2023-02-11T15:37:37;50.17;;;22.38;;
36405;SDS011;22438;42.670;23.288;2023-02-11T15:40:59;49.83;;;20.25;;
36405;SDS011;22438;42.670;23.288;2023-02-11T15:44:31;54.35;;;22.60;;
36405;SDS011;22438;42.670;23.288;2023-02-11T15:47:52;38.25;;;17.63;;
36405;SDS011;22438;42.670;23.288;2023-02-11T15:51:27;55.22;;;27.67;;
36405;SDS011;22438;42.670;23.288;2023-02-11T15:54:51;41.15;;;19.30;;
36405;SDS011;22438;42.670;23.288;2023-02-11T15:58:12;29.73;;;14.43;;
36405;SDS011;22438;42.670;23.288;2023-02-11T16:01:33;23.65;;;13.18;;
36405;SDS011;22438;42.670;23.288;2023-02-11T16:04:56;28.63;;;12.85;;
36405;SDS011;22438;42.670;23.288;2023-02-11T16:08:24;26.02;;;12.52;;
36405;SDS011;22438;42.670;23.288;2023-02-11T16:11:53;27.73;;;12.65;;
36405;SDS011;22438;42.670;23.288;2023-02-11T16:15:26;26.95;;;13.40;;
36405;SDS011;22438;42.670;23.288;2023-02-11T16:18:52;33.42;;;15.00;;
36405;SDS011;22438;42.670;23.288;2023-02-11T16:22:16;42.15;;;19.85;;
36405;SDS011;22438;42.670;23.288;2023-02-11T16:25:44;94.80;;;40.53;;
36405;SDS011;22438;42.670;23.288;2023-02-11T16:29:06;56.65;;;23.55;;
36405;SDS011;22438;42.670;23.288;2023-02-11T16:32:30;47.67;;;20.30;;
36405;SDS011;22438;42.670;23.288;2023-02-11T16:35:51;31.70;;;12.95;;
36405;SDS011;22438;42.670;23.288;2023-02-11T16:39:11;26.98;;;13.48;;
36405;SDS011;22438;42.670;23.288;2023-02-11T16:42:32;25.10;;;13.07;;
36405;SDS011;22438;42.670;23.288;2023-02-11T16:45:53;23.50;;;11.90;;
36405;SDS011;22438;42.670;23.288;2023-02-11T16:49:16;27.15;;;12.90;;
36405;SDS011;22438;42.670;23.288;2023-02-11T16:52:40;24.95;;;12.55;;
36405;SDS011;22438;42.670;23.288;2023-02-11T16:56:02;24.13;;;11.93;;
36405;SDS011;22438;42.670;23.288;2023-02-11T16:59:23;26.23;;;11.48;;
36405;SDS011;22438;42.670;23.288;2023-02-11T17:02:44;26.48;;;11.20;;
36405;SDS011;22438;42.670;23.288;2023-02-11T17:06:08;24.23;;;10.02;;
36405;SDS011;22438;42.670;23.288;2023-02-11T17:09:30;26.70;;;13.57;;
36405;SDS011;22438;42.670;23.288;2023-02-11T17:12:50;23.00;;;11.80;;
36405;SDS011;22438;42.670;23.288;2023-02-11T17:16:15;24.23;;;12.18;;
36405;SDS011;22438;42.670;23.288;2023-02-11T17:19:40;30.95;;;13.00;;
36405;SDS011;22438;42.670;23.288;2023-02-11T17:23:01;25.13;;;12.20;;
36405;SDS011;22438;42.670;23.288;2023-02-11T17:26:22;28.75;;;12.48;;
36405;SDS011;22438;42.670;23.288;2023-02-11T17:29:43;27.63;;;12.23;;
36405;SDS011;22438;42.670;23.288;2023-02-11T17:33:03;25.83;;;11.93;;
36405;SDS011;22438;42.670;23.288;2023-02-11T17:36:24;33.28;;;14.40;;
36405;SDS011;22438;42.670;23.288;2023-02-11T17:39:45;25.48;;;11.60;;
36405;SDS011;22438;42.670;23.288;2023-02-11T17:43:06;22.55;;;10.95;;
36405;SDS011;22438;42.670;23.288;2023-02-11T17:46:26;23.23;;;10.57;;
36405;SDS011;22438;42.670;23.288;2023-02-11T17:49:47;27.80;;;12.32;;
36405;SDS011;22438;42.670;23.288;2023-02-11T17:53:08;26.02;;;10.85;;
36405;SDS011;22438;42.670;23.288;2023-02-11T17:56:32;19.70;;;9.50;;
36405;SDS011;22438;42.670;23.288;2023-02-11T17:59:54;21.55;;;9.02;;
36405;SDS011;22438;42.670;23.288;2023-02-11T18:03:15;22.55;;;9.95;;
36405;SDS011;22438;42.670;23.288;2023-02-11T18:06:35;18.65;;;9.57;;
36405;SDS011;22438;42.670;23.288;2023-02-11T18:09:56;17.55;;;8.93;;
36405;SDS011;22438;42.670;23.288;2023-02-11T18:13:17;25.77;;;12.05;;
36405;SDS011;22438;42.670;23.288;2023-02-11T18:16:38;21.70;;;10.02;;
36405;SDS011;22438;42.670;23.288;2023-02-11T18:20:02;23.75;;;11.70;;
36405;SDS011;22438;42.670;23.288;2023-02-11T18:23:24;21.90;;;11.13;;
36405;SDS011;22438;42.670;23.288;2023-02-11T18:26:45;25.58;;;12.50;;
36405;SDS011;22438;42.670;23.288;2023-02-11T18:30:06;22.77;;;11.18;;
36405;SDS011;22438;42.670;23.288;2023-02-11T18:33:27;26.70;;;11.63;;
36405;SDS011;22438;42.670;23.288;2023-02-11T18:36:49;31.80;;;12.23;;
36405;SDS011;22438;42.670;23.288;2023-02-11T18:40:10;23.15;;;10.60;;
36405;SDS011;22438;42.670;23.288;2023-02-11T18:43:32;25.88;;;12.45;;
36405;SDS011;22438;42.670;23.288;2023-02-11T18:46:53;28.88;;;12.43;;
36405;SDS011;22438;42.670;23.288;2023-02-11T18:50:14;31.10;;;14.85;;
36405;SDS011;22438;42.670;23.288;2023-02-11T18:53:35;19.40;;;9.65;;
36405;SDS011;22438;42.670;23.288;2023-02-11T18:56:56;18.92;;;8.13;;
36405;SDS011;22438;42.670;23.288;2023-02-11T19:00:17;15.48;;;7.18;;
36405;SDS011;22438;42.670;23.288;2023-02-11T19:03:39;16.08;;;6.13;;
36405;SDS011;22438;42.670;23.288;2023-02-11T19:06:59;16.95;;;7.38;;
36405;SDS011;22438;42.670;23.288;2023-02-11T19:10:23;15.32;;;7.45;;
36405;SDS011;22438;42.670;23.288;2023-02-11T19:13:44;13.68;;;5.93;;
36405;SDS011;22438;42.670;23.288;2023-02-11T19:17:07;14.43;;;5.70;;
36405;SDS011;22438;42.670;23.288;2023-02-11T19:20:30;13.00;;;5.72;;
36405;SDS011;22438;42.670;23.288;2023-02-11T19:23:52;15.48;;;6.75;;
36405;SDS011;22438;42.670;23.288;2023-02-11T19:27:13;12.50;;;6.20;;
36405;SDS011;22438;42.670;23.288;2023-02-11T19:30:34;15.50;;;6.07;;
36405;SDS011;22438;42.670;23.288;2023-02-11T19:33:55;13.15;;;5.82;;
36405;SDS011;22438;42.670;23.288;2023-02-11T19:37:16;14.02;;;6.95;;
36405;SDS011;22438;42.670;23.288;2023-02-11T19:40:37;16.13;;;6.25;;
36405;SDS011;22438;42.670;23.288;2023-02-11T19:43:58;14.43;;;6.85;;
36405;SDS011;22438;42.670;23.288;2023-02-11T19:47:19;16.40;;;6.03;;
36405;SDS011;22438;42.670;23.288;2023-02-11T19:50:46;16.63;;;6.88;;
36405;SDS011;22438;42.670;23.288;2023-02-11T19:54:07;13.88;;;5.93;;
36405;SDS011;22438;42.670;23.288;2023-02-11T19:57:28;15.02;;;5.97;;
36405;SDS011;22438;42.670;23.288;2023-02-11T20:00:49;12.00;;;5.40;;
36405;SDS011;22438;42.670;23.288;2023-02-11T20:04:09;12.63;;;5.90;;
36405;SDS011;22438;42.670;23.288;2023-02-11T20:07:30;12.45;;;4.97;;
36405;SDS011;22438;42.670;23.288;2023-02-11T20:10:51;13.50;;;6.10;;
36405;SDS011;22438;42.670;23.288;2023-02-11T20:14:12;10.02;;;4.97;;
36405;SDS011;22438;42.670;23.288;2023-02-11T20:17:34;13.48;;;5.63;;
36405;SDS011;22438;42.670;23.288;2023-02-11T20:20:55;15.20;;;5.28;;
36405;SDS011;22438;42.670;23.288;2023-02-11T20:24:16;13.57;;;5.90;;
36405;SDS011;22438;42.670;23.288;2023-02-11T20:27:37;16.15;;;6.78;;
36405;SDS011;22438;42.670;23.288;2023-02-11T20:30:57;13.13;;;6.03;;
36405;SDS011;22438;42.670;23.288;2023-02-11T20:34:18;12.77;;;5.20;;
36405;SDS011;22438;42.670;23.288;2023-02-11T20:37:41;15.10;;;6.35;;
36405;SDS011;22438;42.670;23.288;2023-02-11T20:41:05;13.75;;;5.65;;
36405;SDS011;22438;42.670;23.288;2023-02-11T20:44:34;13.38;;;5.88;;
36405;SDS011;22438;42.670;23.288;2023-02-11T20:47:56;12.77;;;6.03;;
36405;SDS011;22438;42.670;23.288;2023-02-11T20:51:18;11.77;;;5.97;;
36405;SDS011;22438;42.670;23.288;2023-02-11T20:54:42;15.07;;;6.18;;
36405;SDS011;22438;42.670;23.288;2023-02-11T20:58:04;15.43;;;6.38;;
36405;SDS011;22438;42.670;23.288;2023-02-11T21:01:29;12.93;;;6.05;;
36405;SDS011;22438;42.670;23.288;2023-02-11T21:04:55;16.35;;;7.38;;
36405;SDS011;22438;42.670;23.288;2023-02-11T21:08:15;14.63;;;6.47;;
36405;SDS011;22438;42.670;23.288;2023-02-11T21:11:36;15.90;;;6.47;;
36405;SDS011;22438;42.670;23.288;2023-02-11T21:14:57;15.63;;;5.95;;
36405;SDS011;22438;42.670;23.288;2023-02-11T21:18:18;13.82;;;6.47;;
36405;SDS011;22438;42.670;23.288;2023-02-11T21:21:38;16.30;;;6.50;;
36405;SDS011;22438;42.670;23.288;2023-02-11T21:24:59;13.77;;;6.57;;
36405;SDS011;22438;42.670;23.288;2023-02-11T21:28:20;16.63;;;6.32;;
36405;SDS011;22438;42.670;23.288;2023-02-11T21:31:50;17.58;;;6.40;;
36405;SDS011;22438;42.670;23.288;2023-02-11T21:35:11;19.10;;;7.20;;
36405;SDS011;22438;42.670;23.288;2023-02-11T21:38:31;12.75;;;5.68;;
36405;SDS011;22438;42.670;23.288;2023-02-11T21:41:52;12.68;;;5.85;;
36405;SDS011;22438;42.670;23.288;2023-02-11T21:45:15;13.48;;;4.13;;
36405;SDS011;22438;42.670;23.288;2023-02-11T21:48:36;10.18;;;4.35;;
36405;SDS011;22438;42.670;23.288;2023-02-11T21:51:56;8.40;;;3.42;;
36405;SDS011;22438;42.670;23.288;2023-02-11T21:55:17;8.77;;;3.88;;
36405;SDS011;22438;42.670;23.288;2023-02-11T21:58:38;10.25;;;3.60;;
36405;SDS011;22438;42.670;23.288;2023-02-11T22:01:59;11.25;;;3.45;;
36405;SDS011;22438;42.670;23.288;2023-02-11T22:05:19;8.73;;;4.00;;
36405;SDS011;22438;42.670;23.288;2023-02-11T22:08:40;9.02;;;3.13;;
36405;SDS011;22438;42.670;23.288;2023-02-11T22:12:01;11.63;;;4.28;;
36405;SDS011;22438;42.670;23.288;2023-02-11T22:15:21;11.07;;;4.10;;
36405;SDS011;22438;42.670;23.288;2023-02-11T22:18:42;13.30;;;4.35;;
36405;SDS011;22438;42.670;23.288;2023-02-11T22:22:06;10.60;;;4.28;;
36405;SDS011;22438;42.670;23.288;2023-02-11T22:25:28;10.43;;;4.32;;
36405;SDS011;22438;42.670;23.288;2023-02-11T22:28:49;11.32;;;4.32;;
36405;SDS011;22438;42.670;23.288;2023-02-11T22:32:10;9.20;;;4.10;;
36405;SDS011;22438;42.670;23.288;2023-02-11T22:35:31;12.25;;;4.90;;
36405;SDS011;22438;42.670;23.288;2023-02-11T22:38:53;11.40;;;4.55;;
36405;SDS011;22438;42.670;23.288;2023-02-11T22:42:14;11.90;;;4.80;;
36405;SDS011;22438;42.670;23.288;2023-02-11T22:45:35;10.70;;;4.90;;
36405;SDS011;22438;42.670;23.288;2023-02-11T22:48:56;15.38;;;5.93;;
36405;SDS011;22438;42.670;23.288;2023-02-11T22:52:16;14.13;;;5.15;;
36405;SDS011;22438;42.670;23.288;2023-02-11T22:55:38;13.07;;;5.53;;
36405;SDS011;22438;42.670;23.288;2023-02-11T22:59:00;12.68;;;4.97;;
36405;SDS011;22438;42.670;23.288;2023-02-11T23:02:22;11.15;;;5.47;;
36405;SDS011;22438;42.670;23.288;2023-02-11T23:05:42;10.57;;;4.20;;
36405;SDS011;22438;42.670;23.288;2023-02-11T23:09:07;14.30;;;6.07;;
36405;SDS011;22438;42.670;23.288;2023-02-11T23:12:29;12.27;;;5.65;;
36405;SDS011;22438;42.670;23.288;2023-02-11T23:15:49;13.02;;;5.95;;
36405;SDS011;22438;42.670;23.288;2023-02-11T23:19:10;14.73;;;5.60;;
36405;SDS011;22438;42.670;23.288;2023-02-11T23:22:31;14.27;;;4.60;;
36405;SDS011;22438;42.670;23.288;2023-02-11T23:25:53;14.98;;;5.93;;
36405;SDS011;22438;42.670;23.288;2023-02-11T23:29:13;12.10;;;5.72;;
36405;SDS011;22438;42.670;23.288;2023-02-11T23:32:36;11.95;;;5.70;;
36405;SDS011;22438;42.670;23.288;2023-02-11T23:35:59;13.52;;;6.25;;
36405;SDS011;22438;42.670;23.288;2023-02-11T23:39:19;14.00;;;6.82;;
36405;SDS011;22438;42.670;23.288;2023-02-11T23:42:40;18.40;;;6.95;;
36405;SDS011;22438;42.670;23.288;2023-02-11T23:46:01;15.07;;;6.68;;
36405;SDS011;22438;42.670;23.288;2023-02-11T23:49:22;15.70;;;6.72;;
36405;SDS011;22438;42.670;23.288;2023-02-11T23:52:43;16.73;;;6.88;;
36405;SDS011;22438;42.670;23.288;2023-02-11T23:56:12;15.57;;;7.07;;
36405;SDS011;22438;42.670;23.288;2023-02-11T23:59:35;17.63;;;8.02;;
